Time;durP1;ratioP1;P1;durP2;ratioP2;P2;SDS_P1;SDS_P2;PMS_P1;PMS_P2;Temp;Humidity;BMP_temperature;BMP_pressure;BME280_temperature;BME280_humidity;BME280_pressure;Samples;Min_cycle;Max_cycle;Signal;HPM_P1;HPM_P2
2023/10/17 00:00:42;;;;;;;11.80;8.10;;;5.10;26.50;;;;;;5023781;28;20479;-66
2023/10/17 00:03:11;;;;;;;12.83;8.23;;;5.10;26.30;;;;;;5027221;28;20467;-66
2023/10/17 00:05:37;;;;;;;11.57;8.47;;;5.10;26.30;;;;;;5026269;28;21187;-66
2023/10/17 00:08:09;;;;;;;13.13;9.03;;;5.00;26.20;;;;;;5025375;28;20459;-66
2023/10/17 00:10:41;;;;;;;13.40;8.97;;;5.00;26.30;;;;;;5028966;28;20489;-66
2023/10/17 00:13:23;;;;;;;12.63;9.00;;;5.00;26.50;;;;;;5027597;28;20466;-66
2023/10/17 00:15:50;;;;;;;12.60;9.10;;;5.00;26.50;;;;;;5024768;28;20474;-66
2023/10/17 00:18:18;;;;;;;13.13;9.33;;;4.90;26.50;;;;;;5029108;28;20550;-66
2023/10/17 00:20:45;;;;;;;12.77;9.20;;;4.90;26.50;;;;;;5030024;28;20460;-66
2023/10/17 00:23:15;;;;;;;14.23;9.50;;;4.80;26.60;;;;;;5028733;28;20546;-66
2023/10/17 00:25:45;;;;;;;16.27;8.60;;;4.80;26.70;;;;;;5026889;28;20522;-66
2023/10/17 00:28:13;;;;;;;13.87;9.13;;;4.80;26.90;;;;;;5027924;28;20825;-66
2023/10/17 00:30:41;;;;;;;12.97;9.43;;;4.80;26.60;;;;;;5034725;28;20460;-66
2023/10/17 00:33:09;;;;;;;12.70;8.60;;;4.80;26.60;;;;;;5069667;28;20941;-66
2023/10/17 00:35:38;;;;;;;12.73;9.20;;;4.80;26.70;;;;;;5069150;28;20473;-66
2023/10/17 00:38:08;;;;;;;15.93;8.40;;;4.70;27.00;;;;;;5070727;28;20514;-66
2023/10/17 00:40:44;;;;;;;14.47;10.13;;;4.70;27.20;;;;;;5066733;28;20510;-67
2023/10/17 00:43:16;;;;;;;12.70;10.03;;;4.70;27.00;;;;;;5071089;28;20457;-66
2023/10/17 00:45:45;;;;;;;12.97;9.17;;;4.70;27.20;;;;;;5069969;28;20480;-66
2023/10/17 00:48:18;;;;;;;14.00;10.50;;;4.70;27.30;;;;;;5065748;28;20449;-66
2023/10/17 00:50:47;;;;;;;12.10;8.10;;;4.60;26.80;;;;;;5071675;28;20451;-66
2023/10/17 00:53:14;;;;;;;14.00;9.27;;;4.60;26.90;;;;;;5070470;28;20518;-66
2023/10/17 00:55:49;;;;;;;11.03;8.53;;;4.60;26.80;;;;;;5067352;28;20833;-66
2023/10/17 00:58:19;;;;;;;13.40;9.80;;;4.60;26.50;;;;;;5070243;28;20458;-66
2023/10/17 01:00:49;;;;;;;16.13;9.60;;;4.50;26.80;;;;;;5063719;28;20863;-67
2023/10/17 01:03:16;;;;;;;12.47;8.90;;;4.50;26.80;;;;;;5069619;28;20460;-66
2023/10/17 01:05:57;;;;;;;14.83;9.37;;;4.50;26.70;;;;;;5069574;28;20480;-66
2023/10/17 01:08:27;;;;;;;14.20;8.57;;;4.50;26.60;;;;;;5067700;28;20467;-65
2023/10/17 01:10:54;;;;;;;11.80;8.30;;;4.40;26.50;;;;;;5068529;28;20453;-66
2023/10/17 01:13:26;;;;;;;13.50;9.13;;;4.40;26.40;;;;;;5071731;28;20457;-66
2023/10/17 01:15:53;;;;;;;11.90;8.30;;;4.40;26.40;;;;;;5074008;28;20477;-66
2023/10/17 01:18:20;;;;;;;12.30;8.47;;;4.40;26.10;;;;;;5073691;28;20456;-66
2023/10/17 01:20:46;;;;;;;10.93;7.90;;;4.40;26.40;;;;;;5077502;28;20463;-66
2023/10/17 01:23:14;;;;;;;12.57;8.77;;;4.30;26.50;;;;;;5075333;28;20460;-66
2023/10/17 01:25:42;;;;;;;15.47;9.87;;;4.30;26.40;;;;;;5070408;28;20488;-67
2023/10/17 01:28:10;;;;;;;12.47;9.57;;;4.30;26.10;;;;;;5066154;28;21012;-66
2023/10/17 01:30:38;;;;;;;12.73;9.53;;;4.30;26.20;;;;;;5069246;28;20483;-66
2023/10/17 01:33:07;;;;;;;12.30;9.17;;;4.30;26.10;;;;;;5067742;28;20462;-65
2023/10/17 01:35:36;;;;;;;13.83;9.60;;;4.20;25.80;;;;;;5069187;28;20530;-66
2023/10/17 01:38:02;;;;;;;19.03;10.53;;;4.20;25.90;;;;;;5068822;28;20461;-66
2023/10/17 01:40:32;;;;;;;16.43;10.93;;;4.20;25.90;;;;;;5066394;28;20457;-66
2023/10/17 01:43:00;;;;;;;14.70;10.10;;;4.20;26.50;;;;;;5065592;28;20830;-66
2023/10/17 01:45:29;;;;;;;16.30;11.60;;;4.20;26.60;;;;;;5069535;28;20487;-66
2023/10/17 01:47:56;;;;;;;15.63;9.67;;;4.10;27.40;;;;;;5069293;28;20460;-67
2023/10/17 01:50:24;;;;;;;17.47;10.60;;;4.10;27.80;;;;;;5070444;28;20453;-66
2023/10/17 01:52:53;;;;;;;15.67;10.47;;;4.10;28.10;;;;;;5068687;28;20964;-66
2023/10/17 01:55:24;;;;;;;18.73;11.53;;;4.10;28.00;;;;;;5069996;28;20477;-66
2023/10/17 01:57:54;;;;;;;16.23;10.50;;;4.00;27.90;;;;;;5068684;28;20492;-66
2023/10/17 02:00:27;;;;;;;13.13;9.50;;;4.10;27.70;;;;;;5066715;28;20495;-66
2023/10/17 02:02:54;;;;;;;13.83;10.03;;;4.00;27.40;;;;;;5068321;28;20523;-67
2023/10/17 02:05:21;;;;;;;15.13;10.93;;;4.00;27.50;;;;;;5068378;28;20484;-66
2023/10/17 02:07:48;;;;;;;14.63;10.10;;;4.00;27.50;;;;;;5070726;28;20492;-66
2023/10/17 02:10:17;;;;;;;14.63;9.33;;;4.00;27.50;;;;;;5073311;28;20999;-66
2023/10/17 02:12:45;;;;;;;17.10;11.20;;;4.00;27.60;;;;;;5078796;28;20443;-66
2023/10/17 02:15:12;;;;;;;16.97;11.37;;;4.00;27.50;;;;;;5071013;28;20528;-67
2023/10/17 02:17:40;;;;;;;14.00;10.40;;;4.00;27.50;;;;;;5069608;28;20542;-66
2023/10/17 02:20:18;;;;;;;18.83;11.97;;;4.00;27.80;;;;;;5069142;28;20499;-66
2023/10/17 02:22:47;;;;;;;13.23;8.93;;;4.00;28.00;;;;;;5066843;28;21011;-67
2023/10/17 02:25:15;;;;;;;14.33;10.40;;;3.90;28.20;;;;;;5074296;28;20477;-67
2023/10/17 02:27:43;;;;;;;16.33;9.93;;;3.90;28.40;;;;;;5068685;28;20650;-66
2023/10/17 02:30:13;;;;;;;13.47;9.67;;;3.90;28.30;;;;;;5072806;28;20492;-66
2023/10/17 02:32:46;;;;;;;15.47;11.20;;;3.90;27.90;;;;;;5072232;28;20514;-67
2023/10/17 02:35:15;;;;;;;12.80;8.97;;;3.90;27.80;;;;;;5068833;28;20544;-66
2023/10/17 02:37:44;;;;;;;14.47;10.83;;;3.90;27.90;;;;;;5075559;28;20501;-66
2023/10/17 02:40:20;;;;;;;14.37;10.57;;;3.90;28.10;;;;;;5068136;28;20980;-66
2023/10/17 02:42:47;;;;;;;14.13;9.97;;;3.80;28.30;;;;;;5072168;28;20456;-66
2023/10/17 02:45:18;;;;;;;17.83;11.73;;;3.80;28.40;;;;;;5071787;28;21046;-66
2023/10/17 02:47:48;;;;;;;15.17;11.07;;;3.80;28.50;;;;;;5066354;28;20492;-66
2023/10/17 02:50:26;;;;;;;14.00;10.13;;;3.80;28.60;;;;;;5072714;28;20530;-66
2023/10/17 02:52:53;;;;;;;16.10;11.20;;;3.80;28.80;;;;;;5072896;28;20456;-66
2023/10/17 02:55:23;;;;;;;14.10;9.70;;;3.80;29.00;;;;;;5067646;28;20484;-66
2023/10/17 02:57:51;;;;;;;16.20;10.60;;;3.70;28.90;;;;;;5072272;28;20510;-66
2023/10/17 03:00:21;;;;;;;17.33;10.60;;;3.80;28.50;;;;;;5070415;28;20457;-66
2023/10/17 03:02:52;;;;;;;13.60;9.20;;;3.80;28.50;;;;;;5070822;28;20894;-66
2023/10/17 03:05:19;;;;;;;13.03;9.43;;;3.70;28.50;;;;;;5066262;28;20481;-65
2023/10/17 03:07:49;;;;;;;13.07;9.40;;;3.70;28.60;;;;;;5072394;28;20968;-65
2023/10/17 03:10:25;;;;;;;11.97;9.30;;;3.70;28.60;;;;;;5068743;28;20460;-65
2023/10/17 03:12:55;;;;;;;13.57;11.07;;;3.70;28.70;;;;;;5072320;28;20452;-65
2023/10/17 03:15:23;;;;;;;15.37;10.93;;;3.70;28.50;;;;;;5069914;28;20479;-65
2023/10/17 03:17:54;;;;;;;13.10;10.03;;;3.70;28.60;;;;;;5066712;28;20462;-65
2023/10/17 03:20:28;;;;;;;15.37;11.50;;;3.70;28.70;;;;;;5066780;28;20519;-65
2023/10/17 03:22:54;;;;;;;13.83;9.13;;;3.70;28.70;;;;;;5074462;28;20858;-65
2023/10/17 03:25:24;;;;;;;16.97;9.87;;;3.70;28.60;;;;;;5045775;22;20490;-70
2023/10/17 03:27:52;;;;;;;14.57;8.90;;;3.80;28.40;;;;;;5026131;28;20478;-68
2023/10/17 03:30:21;;;;;;;12.77;9.47;;;3.80;28.40;;;;;;5021923;28;20470;-70
2023/10/17 03:33:05;;;;;;;12.23;8.40;;;3.80;28.20;;;;;;5026710;28;20459;-68
2023/10/17 03:35:36;;;;;;;15.23;9.50;;;3.80;28.80;;;;;;5030297;28;20483;-68
2023/10/17 03:38:03;;;;;;;11.93;7.33;;;3.70;28.50;;;;;;5025739;28;20565;-68
2023/10/17 03:40:40;;;;;;;18.00;9.10;;;3.80;28.40;;;;;;5024393;28;20487;-67
2023/10/17 03:43:12;;;;;;;17.53;8.10;;;3.70;28.50;;;;;;5021759;28;20546;-68
2023/10/17 03:45:45;;;;;;;13.23;8.80;;;3.70;28.40;;;;;;5025644;28;20486;-68
2023/10/17 03:48:14;;;;;;;11.37;7.73;;;3.70;28.50;;;;;;5025149;28;20486;-68
2023/10/17 03:50:49;;;;;;;14.67;9.33;;;3.70;28.50;;;;;;5024606;28;21073;-68
2023/10/17 03:53:24;;;;;;;13.13;8.50;;;3.70;28.60;;;;;;5020188;28;20484;-67
2023/10/17 03:55:52;;;;;;;13.80;8.20;;;3.70;28.40;;;;;;5024401;28;20482;-69
2023/10/17 03:58:28;;;;;;;12.70;8.27;;;3.70;28.60;;;;;;5024306;28;20528;-69
2023/10/17 04:00:57;;;;;;;11.07;8.10;;;3.70;28.40;;;;;;5022072;28;20477;-69
2023/10/17 04:03:25;;;;;;;13.50;7.23;;;3.60;28.20;;;;;;5021349;28;20509;-67
2023/10/17 04:06:01;;;;;;;19.60;8.97;;;3.60;28.30;;;;;;5024264;28;20474;-67
2023/10/17 04:08:31;;;;;;;11.60;7.10;;;3.60;28.20;;;;;;5024034;28;20470;-67
2023/10/17 04:11:08;;;;;;;10.30;6.43;;;3.60;28.10;;;;;;5026926;28;20513;-68
2023/10/17 04:13:37;;;;;;;14.20;7.17;;;3.60;27.90;;;;;;5021712;28;20963;-68
2023/10/17 04:16:09;;;;;;;11.13;6.93;;;3.60;28.10;;;;;;5026858;28;20463;-67
2023/10/17 04:18:37;;;;;;;11.70;7.03;;;3.60;27.80;;;;;;5022823;28;20467;-68
2023/10/17 04:21:17;;;;;;;10.63;6.30;;;3.60;27.80;;;;;;5024434;28;20455;-68
2023/10/17 04:23:45;;;;;;;10.10;6.83;;;3.60;27.80;;;;;;5023925;28;20455;-68
2023/10/17 04:26:17;;;;;;;11.93;7.57;;;3.60;27.90;;;;;;5027567;28;20540;-68
2023/10/17 04:28:49;;;;;;;11.23;7.70;;;3.60;28.00;;;;;;5026530;28;21223;-68
2023/10/17 04:31:22;;;;;;;12.17;8.23;;;3.60;28.10;;;;;;5024754;28;20558;-68
2023/10/17 04:33:49;;;;;;;12.43;8.77;;;3.60;27.90;;;;;;5027616;28;20490;-68
2023/10/17 04:36:18;;;;;;;15.20;9.20;;;3.60;27.80;;;;;;5033519;28;20456;-68
2023/10/17 04:38:55;;;;;;;11.80;7.77;;;3.60;27.90;;;;;;5023897;28;20491;-68
2023/10/17 04:41:36;;;;;;;12.83;8.60;;;3.60;28.00;;;;;;5027986;28;20450;-69
2023/10/17 04:44:04;;;;;;;11.00;8.17;;;3.50;27.90;;;;;;5028624;28;21056;-69
2023/10/17 04:46:34;;;;;;;11.67;8.47;;;3.50;28.10;;;;;;5027584;28;20458;-69
2023/10/17 04:49:06;;;;;;;10.73;8.70;;;3.50;27.80;;;;;;5031542;28;20860;-68
2023/10/17 04:51:42;;;;;;;10.50;7.30;;;3.50;28.00;;;;;;5031679;28;20511;-69
2023/10/17 04:54:20;;;;;;;11.10;7.53;;;3.50;28.00;;;;;;5029250;28;20497;-69
2023/10/17 04:56:59;;;;;;;11.23;7.53;;;3.50;27.90;;;;;;5029815;28;20489;-69
2023/10/17 04:59:41;;;;;;;11.27;7.83;;;3.50;27.90;;;;;;5029897;28;20516;-69
2023/10/17 05:02:35;;;;;;;16.83;10.73;;;3.50;27.90;;;;;;5031358;28;20478;-68
2023/10/17 05:08:17;;;;;;;37.80;19.97;;;3.50;27.70;;;;;;5024022;28;20720;-68
2023/10/17 06:16:51;;;;;;;11.80;6.60;;;3.70;28.10;;;;;;5019825;28;20462;-66
2023/10/17 06:19:21;;;;;;;17.50;7.20;;;3.70;28.10;;;;;;5022692;28;20460;-66
2023/10/17 06:24:56;;;;;;;9.90;7.40;;;3.60;28.30;;;;;;5026329;28;20556;-72
2023/10/17 06:30:28;;;;;;;11.73;7.63;;;3.70;28.70;;;;;;5024834;28;20434;-71
2023/10/17 06:33:04;;;;;;;14.33;8.17;;;3.70;28.90;;;;;;5028670;28;20478;-71
2023/10/17 06:35:33;;;;;;;15.03;8.90;;;3.70;28.90;;;;;;5025813;28;20841;-71
2023/10/17 06:38:00;;;;;;;12.90;9.20;;;3.70;29.10;;;;;;5027694;28;20475;-71
2023/10/17 06:40:37;;;;;;;14.63;10.27;;;3.80;29.20;;;;;;5027999;28;20474;-71
2023/10/17 06:43:13;;;;;;;15.60;10.57;;;3.80;29.20;;;;;;5018722;28;20832;-70
2023/10/17 06:45:52;;;;;;;16.80;10.47;;;3.90;29.30;;;;;;5029016;28;20482;-70
2023/10/17 06:48:19;;;;;;;18.90;10.90;;;3.90;29.40;;;;;;5029873;28;20521;-71
2023/10/17 06:53:34;;;;;;;20.67;11.50;;;4.00;29.30;;;;;;5026810;28;20621;-75
2023/10/17 06:56:09;;;;;;;17.80;10.53;;;4.00;29.30;;;;;;5031725;28;20471;-74
2023/10/17 06:58:36;;;;;;;21.33;11.50;;;4.00;29.20;;;;;;5027638;28;20462;-75
2023/10/17 07:01:06;;;;;;;12.90;9.87;;;4.10;29.20;;;;;;5024169;28;20478;-75
2023/10/17 07:03:38;;;;;;;18.80;10.77;;;4.20;29.00;;;;;;5022373;28;20451;-74
2023/10/17 07:06:12;;;;;;;16.10;11.10;;;4.20;28.90;;;;;;5026483;28;20491;-74
2023/10/17 07:08:40;;;;;;;17.17;11.90;;;4.20;28.90;;;;;;5027853;28;20487;-72
2023/10/17 07:11:09;;;;;;;17.10;10.90;;;4.20;28.70;;;;;;5022940;28;20463;-74
2023/10/17 07:14:09;;;;;;;23.60;12.13;;;4.20;28.80;;;;;;5022466;28;20529;-75
2023/10/17 07:16:57;;;;;;;24.83;12.30;;;4.20;28.90;;;;;;5028173;28;20474;-75
2023/10/17 07:19:46;;;;;;;18.10;12.10;;;4.30;28.70;;;;;;5026517;28;21078;-73
2023/10/17 07:22:15;;;;;;;22.20;13.20;;;4.40;28.80;;;;;;5022602;28;20531;-73
2023/10/17 07:24:44;;;;;;;23.77;14.13;;;4.50;28.80;;;;;;5027192;28;20884;-73
2023/10/17 07:27:19;;;;;;;23.97;14.37;;;4.50;29.00;;;;;;5024628;28;20525;-72
2023/10/17 07:29:58;;;;;;;26.57;14.43;;;4.50;29.00;;;;;;5022529;28;20458;-72
2023/10/17 07:32:32;;;;;;;32.00;15.17;;;4.60;28.80;;;;;;5024670;28;20482;-72
2023/10/17 07:35:01;;;;;;;24.93;14.60;;;4.60;28.70;;;;;;5020201;28;20991;-74
2023/10/17 07:37:33;;;;;;;23.43;14.30;;;4.70;28.80;;;;;;5022537;28;20848;-69
2023/10/17 07:42:45;;;;;;;33.33;16.30;;;4.70;28.40;;;;;;5035457;28;20461;-69
2023/10/17 07:45:15;;;;;;;38.17;16.40;;;4.70;28.60;;;;;;5025132;28;20498;-70
2023/10/17 07:47:51;;;;;;;40.43;17.30;;;4.70;28.60;;;;;;5029150;28;20537;-68
2023/10/17 07:50:18;;;;;;;32.60;14.67;;;4.70;28.60;;;;;;5025584;28;20481;-68
2023/10/17 07:52:50;;;;;;;28.37;15.83;;;4.70;28.70;;;;;;5026940;28;20453;-68
2023/10/17 07:55:22;;;;;;;30.67;16.13;;;4.70;28.60;;;;;;5024464;28;21241;-68
2023/10/17 07:57:52;;;;;;;30.67;17.00;;;4.80;28.60;;;;;;5020555;28;20459;-68
2023/10/17 08:00:26;;;;;;;30.70;16.53;;;4.80;28.60;;;;;;5020503;28;20513;-70
2023/10/17 08:02:56;;;;;;;34.67;16.57;;;4.80;28.70;;;;;;5024670;28;20455;-68
2023/10/17 08:05:26;;;;;;;27.20;15.53;;;4.80;28.60;;;;;;5025705;28;20897;-69
2023/10/17 08:08:04;;;;;;;22.90;14.60;;;4.90;28.30;;;;;;5023955;28;20565;-68
2023/10/17 08:10:35;;;;;;;23.63;14.40;;;4.90;28.30;;;;;;5023492;28;20486;-69
2023/10/17 08:13:02;;;;;;;25.77;17.30;;;4.90;28.30;;;;;;5025167;28;20455;-69
2023/10/17 08:15:36;;;;;;;28.53;14.93;;;5.00;28.50;;;;;;5025488;28;21220;-69
2023/10/17 08:18:06;;;;;;;26.20;14.77;;;5.10;28.40;;;;;;5025211;28;20499;-69
2023/10/17 08:23:34;;;;;;;22.40;14.27;;;5.30;28.40;;;;;;4962790;28;20449;-69
2023/10/17 08:26:00;;;;;;;28.00;16.07;;;5.30;28.10;;;;;;5010068;28;20469;-69
2023/10/17 08:28:37;;;;;;;25.77;14.60;;;5.40;27.80;;;;;;5026315;28;20577;-68
2023/10/17 08:31:17;;;;;;;26.50;13.50;;;5.50;27.50;;;;;;5025109;28;20474;-69
2023/10/17 08:33:47;;;;;;;25.30;15.20;;;5.50;27.00;;;;;;5027333;28;21054;-70
2023/10/17 08:36:13;;;;;;;27.20;15.40;;;5.50;26.80;;;;;;5028801;28;20481;-67
2023/10/17 08:38:40;;;;;;;26.70;14.90;;;5.60;27.00;;;;;;5028045;28;20471;-67
2023/10/17 08:41:07;;;;;;;26.27;16.10;;;5.50;26.90;;;;;;5030475;28;20462;-66
2023/10/17 08:43:36;;;;;;;24.73;16.53;;;5.60;26.80;;;;;;5034912;28;20463;-66
2023/10/17 08:46:07;;;;;;;27.77;14.50;;;5.60;26.80;;;;;;5029825;28;20854;-69
2023/10/17 08:48:36;;;;;;;24.27;15.17;;;5.70;26.40;;;;;;5028873;28;21021;-69
2023/10/17 08:51:07;;;;;;;21.07;13.40;;;5.70;26.30;;;;;;5026164;28;21199;-69
2023/10/17 08:53:34;;;;;;;22.13;15.20;;;5.70;26.30;;;;;;5029504;28;20967;-69
2023/10/17 08:56:02;;;;;;;20.93;15.13;;;5.70;26.30;;;;;;5027631;28;20465;-69
2023/10/17 08:58:33;;;;;;;27.63;16.47;;;5.70;26.40;;;;;;5028748;28;20534;-69
2023/10/17 09:01:10;;;;;;;24.27;15.10;;;5.80;26.20;;;;;;5026804;28;20478;-69
2023/10/17 09:03:41;;;;;;;21.60;14.73;;;5.80;26.10;;;;;;5029288;28;20450;-70
2023/10/17 09:06:28;;;;;;;21.20;14.40;;;5.90;26.40;;;;;;5026216;28;20554;-69
2023/10/17 09:09:17;;;;;;;24.40;15.30;;;6.00;26.70;;;;;;5030087;28;20475;-69
2023/10/17 09:12:03;;;;;;;25.70;16.00;;;6.10;26.60;;;;;;5031339;28;20508;-69
2023/10/17 09:14:35;;;;;;;23.50;15.43;;;6.20;26.10;;;;;;5032824;28;20479;-70
2023/10/17 09:17:10;;;;;;;26.50;16.20;;;6.30;25.80;;;;;;5021496;28;20456;-69
2023/10/17 09:19:46;;;;;;;21.23;14.03;;;6.30;25.50;;;;;;5021840;28;20450;-68
2023/10/17 09:22:15;;;;;;;25.93;16.00;;;6.30;25.30;;;;;;5028251;28;20462;-70
2023/10/17 09:24:45;;;;;;;24.23;15.10;;;6.30;25.20;;;;;;5029342;28;20478;-68
2023/10/17 09:27:14;;;;;;;20.43;15.00;;;6.40;24.90;;;;;;5029703;28;20953;-68
2023/10/17 09:29:45;;;;;;;20.80;13.33;;;6.40;24.90;;;;;;5027918;28;20514;-68
2023/10/17 09:32:12;;;;;;;22.50;13.90;;;6.40;24.80;;;;;;5025553;28;21019;-69
2023/10/17 09:34:40;;;;;;;22.00;15.03;;;6.40;24.20;;;;;;5024827;28;20483;-69
2023/10/17 09:37:12;;;;;;;22.07;15.30;;;6.40;24.10;;;;;;5027554;28;20451;-68
2023/10/17 09:39:46;;;;;;;22.87;15.37;;;6.50;24.40;;;;;;5023313;28;20459;-68
2023/10/17 09:42:14;;;;;;;22.33;15.40;;;6.60;24.40;;;;;;5025457;28;20463;-68
2023/10/17 09:44:41;;;;;;;28.20;16.90;;;6.60;24.30;;;;;;5028233;28;20483;-69
2023/10/17 09:47:10;;;;;;;24.17;15.30;;;6.70;24.40;;;;;;5021843;28;21005;-70
2023/10/17 09:49:44;;;;;;;22.80;14.37;;;6.70;24.30;;;;;;5028832;28;20492;-69
2023/10/17 09:52:14;;;;;;;23.83;15.30;;;6.80;24.10;;;;;;5025262;28;20482;-70
2023/10/17 09:54:46;;;;;;;19.93;14.43;;;6.80;24.10;;;;;;5026375;28;20534;-70
2023/10/17 09:57:17;;;;;;;20.60;13.67;;;6.80;24.00;;;;;;5027873;28;20454;-70
2023/10/17 10:00:05;;;;;;;24.53;15.53;;;6.90;24.00;;;;;;5025101;28;20481;-70
2023/10/17 10:02:36;;;;;;;23.50;14.70;;;6.90;24.10;;;;;;5039537;22;20465;-61
2023/10/17 10:05:21;;;;;;;22.63;15.57;;;7.00;24.00;;;;;;5010695;28;20468;-61
2023/10/17 10:07:48;;;;;;;21.73;14.83;;;7.00;23.80;;;;;;5004849;28;21155;-63
2023/10/17 10:10:51;;;;;;;24.40;15.60;;;7.10;23.40;;;;;;5010499;28;20470;-65
2023/10/17 10:13:19;;;;;;;20.97;14.83;;;7.00;23.30;;;;;;5011063;28;20470;-64
2023/10/17 10:15:53;;;;;;;23.83;16.70;;;7.10;23.10;;;;;;5007911;28;20907;-63
2023/10/17 10:18:57;;;;;;;20.90;14.77;;;7.20;23.30;;;;;;5004818;28;20474;-63
2023/10/17 10:21:55;;;;;;;26.80;15.57;;;7.20;22.90;;;;;;5005266;28;20482;-64
2023/10/17 10:24:26;;;;;;;20.40;14.47;;;7.30;22.70;;;;;;5017703;28;20479;-63
2023/10/17 10:27:18;;;;;;;20.73;14.37;;;7.30;22.70;;;;;;5013352;28;20896;-63
2023/10/17 10:29:47;;;;;;;20.33;13.20;;;7.50;22.80;;;;;;5012363;28;20483;-64
2023/10/17 10:32:30;;;;;;;21.87;14.40;;;7.50;22.70;;;;;;4989132;28;20492;-64
2023/10/17 10:34:57;;;;;;;21.90;14.60;;;7.60;22.40;;;;;;4984109;28;20487;-63
2023/10/17 10:37:24;;;;;;;23.27;15.37;;;7.60;22.10;;;;;;4988260;28;20461;-63
2023/10/17 10:40:17;;;;;;;22.27;15.30;;;7.60;22.00;;;;;;4991509;28;20457;-63
2023/10/17 10:42:47;;;;;;;22.80;15.60;;;7.70;22.00;;;;;;4991383;28;20890;-64
2023/10/17 10:45:35;;;;;;;27.23;15.53;;;7.70;21.60;;;;;;4989918;28;20498;-63
2023/10/17 10:48:04;;;;;;;27.00;16.37;;;7.70;21.60;;;;;;4987223;28;20516;-63
2023/10/17 10:50:34;;;;;;;23.20;16.30;;;7.70;21.70;;;;;;4986749;28;20444;-63
2023/10/17 10:53:03;;;;;;;23.10;16.10;;;7.80;21.70;;;;;;4988362;28;20814;-62
2023/10/17 10:55:31;;;;;;;24.80;17.33;;;7.90;21.90;;;;;;4988480;28;20500;-62
2023/10/17 10:58:03;;;;;;;23.80;16.67;;;8.00;21.70;;;;;;4992916;28;20876;-62
2023/10/17 11:00:31;;;;;;;21.70;14.70;;;8.10;21.50;;;;;;4990518;28;20844;-61
2023/10/17 11:02:59;;;;;;;25.47;16.10;;;8.10;21.00;;;;;;4988993;28;20489;-62
2023/10/17 11:05:26;;;;;;;22.60;15.47;;;8.10;20.70;;;;;;4988226;28;20481;-62
2023/10/17 11:08:00;;;;;;;21.17;15.13;;;8.00;20.90;;;;;;4981837;28;20472;-61
2023/10/17 11:10:27;;;;;;;23.60;16.03;;;7.90;21.20;;;;;;4989513;28;20990;-62
2023/10/17 11:12:55;;;;;;;28.70;17.10;;;7.90;21.40;;;;;;4987402;28;20468;-62
2023/10/17 11:15:26;;;;;;;23.50;17.03;;;8.00;21.20;;;;;;4988278;28;20492;-61
2023/10/17 11:18:00;;;;;;;25.50;16.90;;;8.00;21.50;;;;;;4990411;28;20492;-61
2023/10/17 11:20:28;;;;;;;23.77;16.77;;;8.00;21.40;;;;;;4984293;28;20574;-61
2023/10/17 11:22:56;;;;;;;25.83;18.50;;;8.00;22.10;;;;;;4987361;28;20465;-61
2023/10/17 11:25:26;;;;;;;29.40;17.37;;;8.00;21.90;;;;;;4987038;28;20997;-62
2023/10/17 11:27:56;;;;;;;24.00;16.60;;;8.00;21.70;;;;;;4986035;28;20461;-62
2023/10/17 11:30:33;;;;;;;26.50;17.43;;;8.10;21.80;;;;;;4991504;28;20460;-61
2023/10/17 11:33:02;;;;;;;25.60;16.97;;;8.10;22.00;;;;;;4983789;28;20522;-62
2023/10/17 11:35:30;;;;;;;26.37;18.53;;;8.20;21.90;;;;;;4984865;28;20480;-62
2023/10/17 11:37:58;;;;;;;23.90;17.50;;;8.20;21.80;;;;;;4991199;28;20544;-63
2023/10/17 11:40:38;;;;;;;27.20;17.77;;;8.30;21.70;;;;;;4980741;28;20476;-64
2023/10/17 11:43:16;;;;;;;24.67;15.37;;;8.30;21.70;;;;;;4979920;28;20469;-64
2023/10/17 11:45:44;;;;;;;25.70;17.03;;;8.40;21.10;;;;;;4985770;28;20555;-65
2023/10/17 11:48:31;;;;;;;27.20;16.60;;;8.40;21.10;;;;;;4990818;28;20471;-65
2023/10/17 11:51:04;;;;;;;22.63;16.77;;;8.50;20.90;;;;;;4990406;28;20461;-65
2023/10/17 11:53:31;;;;;;;26.90;18.10;;;8.50;20.90;;;;;;4985471;28;20571;-64
2023/10/17 11:55:58;;;;;;;23.00;16.87;;;8.40;21.10;;;;;;4977209;28;20497;-64
2023/10/17 11:58:25;;;;;;;25.20;18.20;;;8.30;21.30;;;;;;4982310;28;20555;-63
2023/10/17 12:00:53;;;;;;;25.67;17.57;;;8.30;21.50;;;;;;4987410;28;20840;-64
2023/10/17 12:03:20;;;;;;;24.60;16.57;;;8.30;21.70;;;;;;4991644;28;20476;-66
2023/10/17 12:05:46;;;;;;;24.83;16.00;;;8.40;21.80;;;;;;4985868;28;20564;-64
2023/10/17 12:08:21;;;;;;;23.70;16.47;;;8.50;21.70;;;;;;4985612;28;20461;-63
2023/10/17 12:10:49;;;;;;;25.17;16.53;;;8.50;21.80;;;;;;4986078;28;20471;-63
2023/10/17 12:13:17;;;;;;;23.70;16.30;;;8.60;21.80;;;;;;4988106;28;20492;-64
2023/10/17 12:15:44;;;;;;;21.60;16.23;;;8.60;21.60;;;;;;4984963;28;20493;-64
2023/10/17 12:18:12;;;;;;;24.23;16.33;;;8.70;21.50;;;;;;4990170;28;20460;-64
2023/10/17 12:20:41;;;;;;;19.80;15.33;;;8.70;21.30;;;;;;4989765;28;20471;-64
2023/10/17 12:23:09;;;;;;;24.70;16.20;;;8.90;20.80;;;;;;4981303;28;20534;-63
2023/10/17 12:25:36;;;;;;;22.07;16.10;;;9.00;20.70;;;;;;4991601;28;20543;-63
2023/10/17 12:28:06;;;;;;;23.53;16.10;;;9.10;20.80;;;;;;4990100;28;20461;-64
2023/10/17 12:30:36;;;;;;;19.53;14.00;;;9.20;20.60;;;;;;4987870;28;20461;-63
2023/10/17 12:33:04;;;;;;;21.33;15.90;;;9.20;20.50;;;;;;4990509;28;20522;-64
2023/10/17 12:35:33;;;;;;;19.00;15.20;;;9.10;20.10;;;;;;4980029;28;20520;-63
2023/10/17 12:38:06;;;;;;;21.30;15.70;;;9.10;20.30;;;;;;4979894;28;20480;-64
2023/10/17 12:40:33;;;;;;;21.73;16.13;;;9.20;20.10;;;;;;4985086;28;20580;-63
2023/10/17 12:43:01;;;;;;;23.30;17.77;;;9.20;20.40;;;;;;4987355;28;20464;-64
2023/10/17 12:45:30;;;;;;;20.80;14.50;;;9.20;20.30;;;;;;4988748;28;20485;-64
2023/10/17 12:47:56;;;;;;;20.60;15.03;;;9.30;20.00;;;;;;4987385;28;20465;-64
2023/10/17 12:50:24;;;;;;;20.60;15.67;;;9.40;20.00;;;;;;4986939;28;20487;-64
2023/10/17 12:52:53;;;;;;;21.73;15.33;;;9.40;20.00;;;;;;4986120;28;20466;-63
2023/10/17 12:55:20;;;;;;;22.73;16.40;;;9.50;20.00;;;;;;4988319;28;21258;-64
2023/10/17 12:57:46;;;;;;;21.40;15.77;;;9.40;19.90;;;;;;4986157;28;20965;-64
2023/10/17 13:00:15;;;;;;;21.83;15.63;;;9.50;20.00;;;;;;4985851;28;20511;-63
2023/10/17 13:02:42;;;;;;;22.60;15.63;;;9.60;20.00;;;;;;4984863;28;21116;-63
2023/10/17 13:05:10;;;;;;;20.93;15.77;;;9.70;19.90;;;;;;4982687;28;20491;-63
2023/10/17 13:07:37;;;;;;;21.30;15.80;;;9.70;19.60;;;;;;4988034;28;21111;-64
2023/10/17 13:10:07;;;;;;;35.63;17.30;;;9.80;19.60;;;;;;4989525;28;20481;-63
2023/10/17 13:12:34;;;;;;;22.77;15.77;;;9.80;19.50;;;;;;4988974;28;20461;-64
2023/10/17 13:15:00;;;;;;;19.30;14.87;;;9.90;19.30;;;;;;4989228;28;20531;-64
2023/10/17 13:17:28;;;;;;;20.10;15.03;;;10.00;19.10;;;;;;4991792;28;20476;-63
2023/10/17 13:19:57;;;;;;;20.43;15.30;;;10.10;18.90;;;;;;4990833;28;20468;-63
2023/10/17 13:22:24;;;;;;;18.20;14.67;;;10.00;18.80;;;;;;4990220;28;20466;-63
2023/10/17 13:24:50;;;;;;;22.97;17.30;;;10.10;18.80;;;;;;4990232;28;20476;-64
2023/10/17 13:27:18;;;;;;;20.47;16.10;;;10.10;18.90;;;;;;4987062;28;20964;-64
2023/10/17 13:29:46;;;;;;;22.83;16.93;;;10.10;18.70;;;;;;4992114;28;20487;-64
2023/10/17 13:32:13;;;;;;;20.27;16.03;;;10.20;18.60;;;;;;4989127;28;20487;-64
2023/10/17 13:34:39;;;;;;;20.93;16.47;;;10.20;18.60;;;;;;4987369;28;20493;-64
2023/10/17 13:37:07;;;;;;;25.20;17.23;;;10.20;18.60;;;;;;4991523;28;20461;-64
2023/10/17 13:39:34;;;;;;;21.33;16.00;;;10.30;18.50;;;;;;4990917;28;20457;-64
2023/10/17 13:42:02;;;;;;;19.60;14.77;;;10.30;18.50;;;;;;4991072;28;20469;-64
2023/10/17 13:44:30;;;;;;;20.87;16.03;;;10.30;18.40;;;;;;4989799;28;20493;-64
2023/10/17 13:46:57;;;;;;;20.53;14.90;;;10.30;18.40;;;;;;4989692;28;21027;-65
2023/10/17 13:49:24;;;;;;;21.03;15.97;;;10.30;18.40;;;;;;4989051;28;21885;-64
2023/10/17 13:51:53;;;;;;;24.00;17.17;;;10.30;18.50;;;;;;4987892;28;20479;-64
2023/10/17 13:54:20;;;;;;;20.47;14.90;;;10.40;18.40;;;;;;4987742;28;20524;-64
2023/10/17 13:56:47;;;;;;;19.77;14.53;;;10.50;18.40;;;;;;4987944;28;20523;-64
2023/10/17 13:59:14;;;;;;;21.40;15.10;;;10.60;18.30;;;;;;4994236;28;20467;-65
2023/10/17 14:01:41;;;;;;;21.13;15.57;;;10.60;18.00;;;;;;4987263;28;20481;-64
2023/10/17 14:04:09;;;;;;;22.30;16.33;;;10.60;18.00;;;;;;4987609;28;20920;-64
2023/10/17 14:06:39;;;;;;;23.30;18.03;;;10.60;18.00;;;;;;4989373;28;20519;-63
2023/10/17 14:09:14;;;;;;;18.47;14.03;;;10.60;18.10;;;;;;4988130;28;20592;-63
2023/10/17 14:11:42;;;;;;;22.63;15.57;;;10.70;18.10;;;;;;4987841;28;20463;-63
2023/10/17 14:14:10;;;;;;;22.07;15.83;;;10.70;18.00;;;;;;4986140;28;20539;-64
2023/10/17 14:16:40;;;;;;;21.13;16.20;;;10.70;18.30;;;;;;4985970;28;20476;-64
2023/10/17 14:19:15;;;;;;;21.00;15.63;;;10.80;18.00;;;;;;4988827;28;20566;-64
2023/10/17 14:21:44;;;;;;;20.27;16.00;;;10.80;17.90;;;;;;4988946;28;20460;-64